RJCORJCB

Guest
Details From RJCO - SAPPORO
To RJCB - OBIHIRO
Flight Number -
Tags generated
Created
Modified
Stats Distance 84 nm / 156 km
Max Altitude 0 ft / 0 m
Waypoints 3
Social Downloads 1
Likes 0
Share VATSIM

Download

Looking for another format? Having issues loading an existing format? Contact us
Advertisement - Login to hide

Notes

Basic altitude profile: - Ascent Rate: 2500ft/min - Ascent Speed: 250kts - Cruise Altitude: 35000ft - Cruise Speed: 420kts - Descent Rate: 1500ft/min - Descent Speed: 250kts Options: - Use NATs: yes - Use PACOTS: yes - Use low airways: yes - Use high airways: yes

Route

RJCO OBE RJCB

ID Type Via Altitude Latitude Longitude Leg Dist Tot Dist Heading (true) Name
O RJCO APT - 0 ft / 0 m 43.11614˚ 141.38021˚ - 0 nm - SAPPORO
OBE VOR - 0 ft / 0 m 42.73396˚ 143.22045˚ 84 nm 84 nm 105° / 106° OBIHIRO VOR-DME
O RJCB APT - 0 ft / 0 m 42.73360˚ 143.21743˚ 0 nm 84 nm 261° / 261° OBIHIRO

Altitude Profile

Advertisement - Login to hide

RJCO

Details ICAO RJCO (OKD)
Name SAPPORO
Region Japan
Timezone Asia/Tokyo (UTC+9.0)
Stats Elevation 25 ft / 8 m (AMSL)
Location 43.116139° 141.380205°
Runways 1
Magnetic Variation 9.550° W

METAR

RJCO 170416Z 28010G21KT 2000 -SHSN FEW008 BKN015 BKN025 M03/M05 Q1010 RMK 1ST008 5ST015 7CU025 A2983

Decode

TAF

Not found

Departure Runways

ID Width Length Bearing (true) Bearing (mag) Surface Threshold Offset Overrun Length
14 148 ft / 45 m 4,556 ft / 1,389 m 135.03° 144.58° Asphalt 0 ft / 0 m 197 ft / 60 m
32 148 ft / 45 m 4,556 ft / 1,389 m 315.03° 324.58° Asphalt 0 ft / 0 m 197 ft / 60 m

RJCB

Details ICAO RJCB (OBO)
Name OBIHIRO
Region Japan
Timezone Asia/Tokyo (UTC+9.0)
Stats Elevation 505 ft / 154 m (AMSL)
Location 42.733601° 143.217426°
Runways 1
Magnetic Variation 9.073° W

METAR

RJCB 170400Z VRB06KT 9999 FEW040 M02/M13 Q1005

Decode

TAF

TAF TAF RJCB 162309Z 1700/1806 32003KT 9999 FEW040 BECMG 1702/1704 34013KT BECMG 1718/1721 17005KT

Decode

Destination Runways

ID Width Length Bearing (true) Bearing (mag) Surface Threshold Offset Overrun Length
17 150 ft / 46 m 8,209 ft / 2,502 m 159.37° 168.44° Asphalt 0 ft / 0 m 200 ft / 61 m
35 150 ft / 46 m 8,209 ft / 2,502 m 339.37° 348.44° Asphalt 0 ft / 0 m 200 ft / 61 m

Approach Navaids

Runway Type Ident Frequency Range Bearing (true) Bearing (mag) Slope Elevation
35 Localiser IOB 111.70 MHz 18 nm / 33 km 339.37° 348.44° - 505 ft / 154 m (AMSL)
35 Glidescope IOB 111.70 MHz 10 nm / 19 km 339.37° 348.44° 3.00° 505 ft / 154 m (AMSL)